Time;durP1;ratioP1;P1;durP2;ratioP2;P2;SDS_P1;SDS_P2;PMS_P1;PMS_P2;Temp;Humidity;BMP_temperature;BMP_pressure;BME280_temperature;BME280_humidity;BME280_pressure;Samples;Min_cycle;Max_cycle;Signal;HPM_P1;HPM_P2
2021/03/26 00:00:53;;;;;;;66.13;48.25;;;9.50;1.00;;;;;;4954179;28;20228;-74
2021/03/26 00:03:22;;;;;;;62.00;49.05;;;9.40;1.00;;;;;;4956139;28;20249;-75
2021/03/26 00:05:50;;;;;;;62.05;46.65;;;9.40;1.00;;;;;;4954773;28;20235;-74
2021/03/26 00:08:17;;;;;;;69.50;50.00;;;9.30;1.00;;;;;;4954679;28;20233;-74
2021/03/26 00:10:45;;;;;;;67.10;48.95;;;9.10;1.00;;;;;;4953022;28;20215;-74
2021/03/26 00:13:12;;;;;;;64.55;49.33;;;9.10;1.00;;;;;;4959190;28;20239;-75
2021/03/26 00:15:39;;;;;;;67.75;48.58;;;9.00;1.00;;;;;;4960003;28;21064;-75
2021/03/26 00:18:06;;;;;;;68.10;50.20;;;8.90;1.00;;;;;;4957910;28;20241;-72
2021/03/26 00:20:32;;;;;;;67.50;49.47;;;8.80;1.00;;;;;;4971156;28;20216;-72
2021/03/26 00:22:59;;;;;;;59.75;45.83;;;8.70;1.00;;;;;;4965589;28;20296;-74
2021/03/26 00:25:25;;;;;;;64.68;48.75;;;8.60;1.00;;;;;;4957021;28;20920;-75
2021/03/26 00:27:51;;;;;;;68.60;50.47;;;8.60;1.00;;;;;;4958964;28;21363;-74
2021/03/26 00:30:20;;;;;;;60.80;47.53;;;8.50;1.00;;;;;;4959547;28;20278;-72
2021/03/26 00:32:46;;;;;;;66.05;49.78;;;8.50;1.00;;;;;;4944796;28;20228;-74
2021/03/26 00:35:16;;;;;;;64.22;47.00;;;8.40;1.00;;;;;;4955043;28;20280;-74
2021/03/26 00:37:42;;;;;;;62.35;50.10;;;8.30;1.00;;;;;;4953368;28;20233;-72
2021/03/26 00:40:12;;;;;;;68.28;48.10;;;8.30;1.00;;;;;;4950742;28;20261;-73
2021/03/26 00:42:38;;;;;;;69.45;48.85;;;8.20;1.00;;;;;;4955765;28;20262;-74
2021/03/26 00:45:07;;;;;;;64.90;47.65;;;8.10;1.00;;;;;;4937685;28;20232;-73
2021/03/26 00:47:35;;;;;;;61.17;48.47;;;8.10;1.00;;;;;;4951308;28;20335;-75
2021/03/26 00:50:02;;;;;;;64.78;47.78;;;8.00;1.00;;;;;;4952005;28;20224;-75
2021/03/26 00:52:28;;;;;;;64.78;45.95;;;8.10;1.00;;;;;;4953136;28;20227;-71
2021/03/26 00:54:54;;;;;;;70.45;49.20;;;8.10;1.00;;;;;;4955577;28;20284;-75
2021/03/26 00:57:20;;;;;;;61.95;47.45;;;8.00;1.00;;;;;;4952316;28;20738;-75
2021/03/26 00:59:46;;;;;;;68.00;46.35;;;7.90;1.00;;;;;;4956416;28;20255;-73
2021/03/26 01:02:13;;;;;;;64.30;46.75;;;7.80;1.00;;;;;;4955642;28;20225;-73
2021/03/26 01:04:40;;;;;;;68.00;47.88;;;7.80;1.00;;;;;;4958519;28;20235;-74
2021/03/26 01:07:07;;;;;;;62.25;47.05;;;7.80;1.00;;;;;;4964650;28;20244;-75
2021/03/26 01:09:34;;;;;;;69.63;49.55;;;7.70;1.00;;;;;;4955253;28;21129;-73
2021/03/26 01:12:00;;;;;;;72.57;50.42;;;7.60;1.00;;;;;;4950361;28;20228;-75
2021/03/26 01:14:26;;;;;;;65.30;48.10;;;7.50;1.00;;;;;;4940682;28;20228;-72
2021/03/26 01:16:52;;;;;;;70.00;51.78;;;7.50;1.00;;;;;;4955116;28;20262;-74
2021/03/26 01:19:19;;;;;;;63.17;48.58;;;7.40;1.00;;;;;;4959140;28;20700;-75
2021/03/26 01:21:46;;;;;;;75.45;51.03;;;7.40;1.00;;;;;;4951234;28;20308;-73
2021/03/26 01:24:16;;;;;;;64.32;49.92;;;7.40;1.00;;;;;;4954682;28;20260;-73
2021/03/26 01:26:42;;;;;;;61.63;48.92;;;7.40;1.00;;;;;;4954980;28;21437;-74
2021/03/26 01:29:08;;;;;;;66.38;47.53;;;7.40;1.00;;;;;;4952529;28;20231;-74
2021/03/26 01:31:35;;;;;;;65.80;49.72;;;7.50;1.00;;;;;;4951645;28;20689;-74
2021/03/26 01:34:02;;;;;;;62.88;47.45;;;7.60;1.00;;;;;;4951570;28;20239;-75
2021/03/26 01:36:28;;;;;;;64.35;49.45;;;7.70;1.00;;;;;;4953475;28;20236;-75
2021/03/26 01:38:55;;;;;;;63.10;49.50;;;7.70;1.00;;;;;;4950912;28;20342;-75
2021/03/26 01:41:35;;;;;;;70.07;49.08;;;7.80;1.00;;;;;;4950459;28;20244;-75
2021/03/26 01:44:01;;;;;;;66.78;50.08;;;7.90;1.00;;;;;;4956810;28;20752;-75
2021/03/26 01:46:27;;;;;;;62.00;49.30;;;8.00;1.00;;;;;;4951291;28;20235;-74
2021/03/26 01:48:56;;;;;;;71.38;48.47;;;8.00;1.00;;;;;;4952160;28;20272;-75
2021/03/26 01:51:26;;;;;;;70.30;47.58;;;8.00;1.00;;;;;;4948239;28;20287;-74
2021/03/26 01:53:53;;;;;;;70.13;47.70;;;8.00;1.00;;;;;;4941202;28;20292;-73
2021/03/26 01:56:20;;;;;;;65.80;46.15;;;8.00;1.00;;;;;;4947690;28;21382;-73
2021/03/26 01:58:46;;;;;;;66.05;46.70;;;7.90;1.00;;;;;;4958408;28;21111;-76
2021/03/26 02:01:16;;;;;;;74.88;46.70;;;7.90;1.00;;;;;;4964929;28;20346;-73
2021/03/26 02:03:45;;;;;;;62.88;47.53;;;8.00;1.00;;;;;;4957970;28;20224;-75
2021/03/26 02:06:17;;;;;;;69.50;50.83;;;8.00;1.00;;;;;;4956289;28;20224;-72
2021/03/26 02:08:44;;;;;;;64.50;49.10;;;8.00;1.00;;;;;;4947934;28;20381;-73
2021/03/26 02:11:18;;;;;;;61.65;45.70;;;7.90;1.00;;;;;;4954397;28;20235;-75
2021/03/26 02:13:49;;;;;;;61.97;47.10;;;8.00;1.00;;;;;;4952939;28;21058;-74
2021/03/26 02:16:17;;;;;;;70.93;49.90;;;8.00;1.00;;;;;;4952675;28;20305;-74
2021/03/26 02:18:44;;;;;;;63.78;47.15;;;8.00;1.00;;;;;;4956262;28;20707;-75
2021/03/26 02:21:15;;;;;;;64.45;46.60;;;8.00;1.00;;;;;;4957568;28;20228;-75
2021/03/26 02:23:42;;;;;;;64.95;46.10;;;8.10;1.00;;;;;;4958138;28;20221;-75
2021/03/26 02:26:15;;;;;;;64.80;48.22;;;8.00;1.00;;;;;;4955972;28;20232;-75
2021/03/26 02:28:42;;;;;;;58.28;47.28;;;8.00;1.00;;;;;;4954428;28;20233;-75
2021/03/26 02:31:09;;;;;;;59.83;47.92;;;8.00;1.00;;;;;;4940698;28;20227;-75
2021/03/26 02:33:36;;;;;;;63.95;49.20;;;8.00;1.00;;;;;;4953723;28;20232;-75
2021/03/26 02:36:45;;;;;;;65.03;49.42;;;8.00;1.00;;;;;;4957321;28;20280;-73
2021/03/26 02:39:27;;;;;;;71.03;49.20;;;8.00;1.00;;;;;;4955211;28;20249;-73
2021/03/26 02:41:57;;;;;;;62.45;49.53;;;8.10;1.00;;;;;;4951423;28;20243;-71
2021/03/26 02:44:33;;;;;;;62.80;47.17;;;8.10;1.00;;;;;;4956625;28;20229;-73
2021/03/26 02:47:09;;;;;;;63.53;47.97;;;8.00;1.00;;;;;;4955735;28;20487;-75
2021/03/26 02:49:42;;;;;;;60.42;48.30;;;7.90;1.00;;;;;;4953543;28;20314;-75
2021/03/26 02:52:14;;;;;;;65.07;48.55;;;7.70;1.00;;;;;;4952764;28;20235;-73
2021/03/26 02:54:47;;;;;;;66.95;50.40;;;7.70;1.00;;;;;;4963088;28;20982;-73
2021/03/26 02:57:19;;;;;;;65.88;52.30;;;7.60;1.00;;;;;;4969282;28;20220;-73
2021/03/26 02:59:51;;;;;;;66.93;50.42;;;7.60;1.00;;;;;;4972352;28;20286;-73
2021/03/26 03:02:20;;;;;;;69.63;53.17;;;7.50;1.00;;;;;;4965119;28;20220;-74
2021/03/26 03:04:50;;;;;;;67.13;51.30;;;7.40;1.00;;;;;;4965348;28;20262;-74
2021/03/26 03:07:22;;;;;;;65.43;50.58;;;7.40;1.00;;;;;;4955752;28;20223;-72
2021/03/26 03:09:52;;;;;;;71.05;55.20;;;7.40;1.00;;;;;;4952287;28;21031;-72
2021/03/26 03:12:25;;;;;;;74.90;53.47;;;7.40;1.00;;;;;;4956530;28;20303;-72
2021/03/26 03:14:57;;;;;;;66.88;50.75;;;7.50;1.00;;;;;;4958933;28;20638;-73
2021/03/26 03:17:27;;;;;;;70.47;51.28;;;7.60;1.00;;;;;;4956286;28;20223;-74
2021/03/26 03:19:59;;;;;;;67.82;50.20;;;7.60;1.00;;;;;;4952806;28;20226;-76
2021/03/26 03:22:30;;;;;;;68.10;50.60;;;7.70;1.00;;;;;;4954060;28;21882;-74
2021/03/26 03:25:05;;;;;;;78.40;50.83;;;7.80;1.00;;;;;;4955441;28;20233;-77
2021/03/26 03:27:38;;;;;;;66.55;51.15;;;7.90;1.00;;;;;;4949054;28;20315;-74
2021/03/26 03:30:16;;;;;;;68.43;50.50;;;8.00;1.00;;;;;;4955821;28;20237;-75
2021/03/26 03:32:51;;;;;;;62.50;50.85;;;8.00;1.00;;;;;;4955148;28;21027;-73
2021/03/26 03:35:33;;;;;;;66.30;50.03;;;8.00;1.00;;;;;;4955563;28;20225;-75
2021/03/26 03:38:11;;;;;;;72.55;52.65;;;8.00;1.00;;;;;;4950101;28;20987;-74
2021/03/26 03:40:48;;;;;;;61.58;48.53;;;8.00;1.00;;;;;;4961508;28;20259;-72
2021/03/26 03:43:23;;;;;;;66.32;49.33;;;8.00;1.00;;;;;;4958920;28;20232;-75
2021/03/26 03:45:57;;;;;;;57.15;46.88;;;8.00;1.00;;;;;;4955269;28;20324;-75
2021/03/26 03:48:31;;;;;;;63.95;50.08;;;8.00;1.00;;;;;;4965314;28;21519;-75
2021/03/26 03:51:01;;;;;;;66.03;49.30;;;7.90;1.00;;;;;;4952251;28;20220;-73
2021/03/26 03:53:34;;;;;;;71.65;52.60;;;7.90;1.00;;;;;;4953375;28;20759;-74
2021/03/26 03:56:09;;;;;;;66.38;51.67;;;7.90;1.00;;;;;;4949997;28;20246;-77
2021/03/26 03:58:39;;;;;;;69.25;48.67;;;7.90;1.00;;;;;;4953847;28;20700;-77
2021/03/26 04:01:11;;;;;;;71.30;49.95;;;7.90;1.00;;;;;;4952670;28;20224;-77
2021/03/26 04:03:45;;;;;;;66.85;50.63;;;7.90;1.00;;;;;;4952799;28;21162;-77
2021/03/26 04:06:15;;;;;;;70.18;51.63;;;7.90;1.00;;;;;;4955570;28;20838;-78
2021/03/26 04:08:44;;;;;;;66.00;50.22;;;7.90;1.00;;;;;;4957087;28;20227;-77
2021/03/26 04:11:18;;;;;;;71.35;54.72;;;7.80;1.00;;;;;;4955391;28;20224;-77
2021/03/26 04:13:54;;;;;;;62.30;49.53;;;7.80;1.00;;;;;;4956102;28;20752;-78
2021/03/26 04:16:24;;;;;;;70.45;51.10;;;7.80;1.00;;;;;;4957751;28;21425;-77
2021/03/26 04:18:54;;;;;;;65.80;52.88;;;7.90;1.00;;;;;;4956841;28;21219;-79
2021/03/26 04:21:24;;;;;;;78.53;53.38;;;7.80;1.00;;;;;;4960039;28;20240;-77
2021/03/26 04:23:56;;;;;;;68.38;50.47;;;7.80;1.00;;;;;;4959530;28;20283;-77
2021/03/26 04:26:28;;;;;;;67.32;52.67;;;7.80;1.00;;;;;;4964523;28;20228;-77
2021/03/26 04:29:01;;;;;;;68.78;51.60;;;7.80;1.00;;;;;;4955515;28;20224;-75
2021/03/26 04:31:33;;;;;;;68.63;50.63;;;7.80;1.00;;;;;;4956602;28;20306;-74
2021/03/26 04:34:00;;;;;;;86.90;61.53;;;7.90;1.00;;;;;;4957410;28;20255;-76
2021/03/26 04:36:34;;;;;;;63.08;47.72;;;7.90;1.00;;;;;;4963930;28;20271;-74
2021/03/26 04:39:04;;;;;;;73.68;52.88;;;7.90;1.00;;;;;;4971417;28;20243;-73
2021/03/26 04:41:38;;;;;;;67.85;52.28;;;7.90;1.00;;;;;;4963591;28;20294;-79
2021/03/26 04:44:12;;;;;;;76.40;53.10;;;7.80;1.00;;;;;;4980456;28;20299;-77
2021/03/26 04:46:54;;;;;;;65.63;49.35;;;7.80;1.00;;;;;;4984196;28;20267;-79
2021/03/26 04:49:23;;;;;;;69.20;52.60;;;7.80;1.00;;;;;;4980807;28;20236;-78
2021/03/26 04:51:56;;;;;;;66.18;50.80;;;7.80;1.00;;;;;;4983513;28;20213;-77
2021/03/26 04:54:27;;;;;;;66.40;50.83;;;7.90;1.00;;;;;;4974498;28;20220;-78
2021/03/26 04:57:00;;;;;;;79.35;54.40;;;7.90;1.00;;;;;;4973944;28;20224;-76
2021/03/26 04:59:32;;;;;;;68.55;51.53;;;7.90;1.00;;;;;;4966465;28;20255;-77
2021/03/26 05:02:02;;;;;;;66.57;52.40;;;8.00;1.00;;;;;;4960539;28;20299;-78
2021/03/26 05:04:32;;;;;;;70.15;50.53;;;8.00;1.00;;;;;;4956090;28;20228;-78
2021/03/26 05:07:01;;;;;;;63.95;49.05;;;8.10;1.00;;;;;;4961834;28;20232;-79
2021/03/26 05:09:33;;;;;;;68.18;50.40;;;8.10;1.00;;;;;;4966296;28;20234;-80
2021/03/26 05:12:06;;;;;;;67.93;49.70;;;8.20;1.00;;;;;;4962104;28;20228;-79
2021/03/26 05:14:37;;;;;;;67.65;49.83;;;8.20;1.00;;;;;;4949404;28;20232;-80
2021/03/26 05:17:09;;;;;;;66.72;50.45;;;8.30;1.00;;;;;;4968728;28;20220;-80
2021/03/26 05:19:40;;;;;;;61.40;50.70;;;8.30;1.00;;;;;;4971577;28;20243;-79
2021/03/26 05:22:24;;;;;;;58.55;47.00;;;8.30;1.00;;;;;;4975039;28;20304;-79
2021/03/26 05:24:54;;;;;;;57.33;46.88;;;8.30;1.00;;;;;;4962991;28;20224;-79
2021/03/26 05:27:21;;;;;;;62.63;47.47;;;8.40;1.00;;;;;;4960889;28;20228;-80
2021/03/26 05:29:48;;;;;;;69.65;52.38;;;8.40;1.00;;;;;;4967868;28;20234;-79
2021/03/26 05:32:19;;;;;;;68.90;49.38;;;8.40;1.00;;;;;;4972459;28;20243;-80
2021/03/26 05:34:52;;;;;;;68.13;49.60;;;8.50;1.00;;;;;;4961538;28;21135;-79
2021/03/26 05:37:26;;;;;;;71.72;50.40;;;8.50;1.00;;;;;;4966037;28;21063;-78
2021/03/26 05:39:57;;;;;;;67.78;52.28;;;8.50;1.00;;;;;;4968227;28;20230;-80
2021/03/26 05:42:34;;;;;;;67.00;50.65;;;8.50;1.00;;;;;;4965375;28;21105;-78
2021/03/26 05:45:12;;;;;;;64.88;48.85;;;8.50;1.00;;;;;;4964899;28;20229;-78
2021/03/26 05:47:55;;;;;;;64.55;48.67;;;8.50;1.00;;;;;;4968173;28;21970;-77
2021/03/26 05:50:38;;;;;;;58.40;49.38;;;8.40;1.00;;;;;;4961576;28;21048;-79
2021/03/26 05:53:17;;;;;;;69.72;49.38;;;8.40;1.00;;;;;;4964163;28;20236;-78
2021/03/26 05:55:51;;;;;;;70.95;52.28;;;8.30;1.00;;;;;;4961210;28;20255;-78
2021/03/26 05:58:50;;;;;;;71.05;51.35;;;8.30;1.00;;;;;;4967363;28;20354;-80
2021/03/26 06:01:48;;;;;;;69.05;49.80;;;8.20;1.00;;;;;;4955961;28;20260;-79
2021/03/26 06:04:37;;;;;;;75.03;53.67;;;8.10;1.00;;;;;;4943701;28;20263;-77
2021/03/26 06:07:29;;;;;;;81.63;56.22;;;8.00;1.00;;;;;;4967383;28;20232;-79
2021/03/26 06:10:25;;;;;;;82.80;55.75;;;8.00;1.00;;;;;;4958711;28;20224;-78
2021/03/26 06:13:06;;;;;;;79.30;57.30;;;8.00;1.00;;;;;;4967814;28;20220;-78
2021/03/26 06:16:16;;;;;;;77.07;55.55;;;8.00;1.00;;;;;;4968704;28;20295;-79
2021/03/26 06:19:27;;;;;;;84.18;57.35;;;8.00;1.00;;;;;;4980379;28;20255;-78
2021/03/26 06:22:10;;;;;;;73.47;55.83;;;8.10;1.00;;;;;;4924053;28;20263;-77
2021/03/26 06:25:01;;;;;;;79.93;57.15;;;8.00;1.00;;;;;;4967086;28;20282;-76
2021/03/26 06:27:32;;;;;;;77.72;56.53;;;8.10;1.00;;;;;;4961932;28;20261;-76
2021/03/26 06:30:18;;;;;;;89.43;60.53;;;8.10;1.00;;;;;;4971616;28;20787;-75
2021/03/26 06:33:29;;;;;;;81.45;57.95;;;8.10;1.00;;;;;;4983222;28;20244;-76
2021/03/26 06:36:23;;;;;;;84.35;58.58;;;8.20;1.00;;;;;;4991933;28;20270;-79
2021/03/26 06:39:18;;;;;;;81.30;58.50;;;8.20;1.00;;;;;;4992381;28;20238;-79
2021/03/26 06:42:12;;;;;;;81.72;58.88;;;8.30;1.00;;;;;;4991125;28;20235;-78
2021/03/26 06:44:59;;;;;;;77.80;57.97;;;8.30;1.00;;;;;;4972519;28;20249;-78
2021/03/26 06:47:48;;;;;;;82.60;57.20;;;8.40;1.00;;;;;;4991382;28;20292;-80
2021/03/26 06:50:25;;;;;;;79.22;54.83;;;8.50;1.00;;;;;;4991221;28;20261;-80
2021/03/26 06:53:18;;;;;;;79.30;57.92;;;8.50;1.00;;;;;;4992839;28;20244;-81
2021/03/26 06:56:30;;;;;;;75.68;53.78;;;8.40;1.00;;;;;;4994031;28;20221;-80
2021/03/26 06:59:33;;;;;;;75.78;55.50;;;8.40;1.00;;;;;;4976871;28;20546;-80
2021/03/26 07:02:12;;;;;;;75.75;52.65;;;8.40;1.00;;;;;;4997555;28;20223;-80
2021/03/26 07:04:56;;;;;;;74.25;55.85;;;8.40;1.00;;;;;;4988855;28;20305;-80
2021/03/26 07:08:01;;;;;;;82.22;56.13;;;8.40;1.00;;;;;;4976774;28;20787;-78
2021/03/26 07:10:37;;;;;;;75.03;55.08;;;8.30;1.00;;;;;;4975232;28;20232;-81
2021/03/26 07:13:50;;;;;;;71.80;53.58;;;8.40;1.00;;;;;;4967461;28;20223;-78
2021/03/26 07:16:38;;;;;;;69.65;51.08;;;8.50;1.00;;;;;;4979775;28;20939;-79
2021/03/26 07:19:20;;;;;;;75.72;53.90;;;8.50;1.00;;;;;;4979125;28;20225;-79
2021/03/26 07:22:02;;;;;;;79.82;54.80;;;8.70;1.00;;;;;;4969817;28;20264;-79
2021/03/26 07:24:52;;;;;;;87.32;65.20;;;8.80;1.00;;;;;;4948302;28;21257;-80
2021/03/26 07:27:27;;;;;;;78.60;56.70;;;9.10;1.00;;;;;;4964748;28;20297;-79
2021/03/26 07:30:27;;;;;;;82.72;56.20;;;9.30;1.00;;;;;;4975232;28;20321;-79
2021/03/26 07:33:16;;;;;;;77.15;57.03;;;9.70;1.00;;;;;;4939497;28;20309;-76
2021/03/26 07:36:09;;;;;;;80.18;54.00;;;9.90;1.00;;;;;;4948353;28;21737;-80
2021/03/26 07:39:02;;;;;;;75.23;54.80;;;10.10;1.00;;;;;;4970673;28;20271;-78
2021/03/26 07:41:44;;;;;;;74.90;55.53;;;10.20;1.00;;;;;;4974836;28;20506;-78
2021/03/26 07:44:28;;;;;;;69.65;51.50;;;10.30;1.00;;;;;;4969491;28;20465;-77
2021/03/26 07:47:05;;;;;;;69.27;51.93;;;10.40;1.00;;;;;;4971657;28;20224;-76
2021/03/26 07:49:45;;;;;;;70.33;51.90;;;10.60;1.00;;;;;;4957850;28;20448;-75
2021/03/26 07:52:18;;;;;;;62.83;49.83;;;10.70;1.00;;;;;;4950503;28;20436;-71
2021/03/26 07:55:09;;;;;;;65.73;50.63;;;10.70;1.00;;;;;;4952603;28;20546;-72
2021/03/26 07:58:02;;;;;;;66.40;51.70;;;10.60;1.00;;;;;;4948402;28;20459;-73
2021/03/26 08:00:42;;;;;;;67.50;51.10;;;10.80;1.00;;;;;;4960832;28;20534;-72
2021/03/26 08:03:20;;;;;;;71.60;53.13;;;11.00;1.00;;;;;;4950560;28;20636;-74
2021/03/26 08:05:57;;;;;;;67.27;49.37;;;11.20;1.00;;;;;;4951252;28;21211;-71
2021/03/26 08:08:48;;;;;;;65.80;50.97;;;11.30;1.00;;;;;;4947358;28;20699;-71
2021/03/26 08:11:28;;;;;;;65.40;48.83;;;11.60;1.00;;;;;;4950849;28;20475;-72
2021/03/26 08:14:11;;;;;;;69.97;51.13;;;11.70;1.00;;;;;;4946834;28;20456;-71
2021/03/26 08:17:00;;;;;;;63.47;52.63;;;11.90;1.00;;;;;;4952851;28;20487;-71
2021/03/26 08:19:36;;;;;;;64.53;53.03;;;12.10;1.00;;;;;;4943053;28;20460;-71
2021/03/26 08:22:14;;;;;;;72.03;53.60;;;12.60;1.00;;;;;;4952130;28;20470;-72
2021/03/26 08:25:06;;;;;;;63.63;51.03;;;12.90;1.00;;;;;;4947624;28;21034;-70
2021/03/26 08:27:44;;;;;;;65.70;52.63;;;13.40;1.00;;;;;;4950800;28;20464;-77
2021/03/26 08:30:33;;;;;;;66.37;51.33;;;13.70;1.00;;;;;;4957184;28;20458;-76
2021/03/26 08:33:14;;;;;;;67.50;54.90;;;13.90;1.00;;;;;;4963893;28;20494;-74
2021/03/26 08:36:07;;;;;;;61.90;50.30;;;14.10;1.00;;;;;;4951950;28;20539;-75
2021/03/26 08:38:51;;;;;;;64.50;51.30;;;14.20;1.00;;;;;;4944280;28;20516;-74
2021/03/26 08:41:25;;;;;;;66.50;51.27;;;14.50;1.00;;;;;;4955001;28;20444;-75
2021/03/26 08:43:54;;;;;;;66.30;49.00;;;14.80;1.00;;;;;;4947360;28;20447;-77
2021/03/26 08:46:25;;;;;;;64.83;52.17;;;15.00;1.00;;;;;;4950623;28;20467;-74
2021/03/26 08:49:03;;;;;;;61.53;50.23;;;15.00;1.00;;;;;;4949331;28;20475;-75
2021/03/26 08:52:04;;;;;;;63.20;48.80;;;15.10;1.00;;;;;;4957743;28;20447;-74
2021/03/26 08:55:02;;;;;;;59.20;46.40;;;15.30;1.00;;;;;;4954122;28;20448;-74
2021/03/26 08:57:38;;;;;;;64.37;48.37;;;15.50;1.00;;;;;;4955589;28;20509;-76
2021/03/26 09:00:17;;;;;;;57.37;45.57;;;15.40;1.00;;;;;;4931399;28;20475;-75
2021/03/26 09:03:15;;;;;;;64.50;48.17;;;15.60;1.00;;;;;;4952015;28;21016;-75
2021/03/26 09:05:53;;;;;;;66.60;47.20;;;15.70;1.00;;;;;;4951733;28;20565;-75
2021/03/26 09:08:29;;;;;;;58.27;45.80;;;16.00;1.00;;;;;;4964975;28;20445;-74
2021/03/26 09:11:22;;;;;;;67.70;49.07;;;16.10;1.00;;;;;;4957150;28;21201;-74
2021/03/26 09:14:20;;;;;;;62.97;47.30;;;16.40;1.00;;;;;;4951325;28;20445;-76
2021/03/26 09:16:53;;;;;;;57.27;41.90;;;16.40;1.00;;;;;;4951836;28;20460;-74
2021/03/26 09:19:25;;;;;;;56.97;43.73;;;16.50;1.00;;;;;;4949907;28;20476;-74
2021/03/26 09:21:58;;;;;;;57.90;43.17;;;16.70;1.00;;;;;;4961862;28;20470;-75
2021/03/26 09:25:01;;;;;;;52.83;42.30;;;17.20;1.00;;;;;;4957612;28;20454;-74
2021/03/26 09:27:36;;;;;;;57.73;43.50;;;17.90;1.00;;;;;;4956813;28;20462;-76
2021/03/26 09:30:14;;;;;;;57.73;42.90;;;18.70;1.00;;;;;;4948527;28;20478;-74
2021/03/26 09:32:46;;;;;;;48.90;43.60;;;19.30;1.00;;;;;;4952105;28;20489;-75
2021/03/26 09:35:19;;;;;;;45.70;38.93;;;19.60;1.00;;;;;;4959813;28;20498;-75
2021/03/26 09:37:52;;;;;;;46.53;37.77;;;20.10;1.00;;;;;;4952230;28;20529;-74
2021/03/26 09:40:28;;;;;;;56.53;38.03;;;20.40;1.00;;;;;;4952127;28;20615;-74
2021/03/26 09:43:21;;;;;;;49.17;36.83;;;20.90;1.00;;;;;;4957406;28;20954;-75
2021/03/26 09:45:53;;;;;;;43.60;36.57;;;21.20;1.00;;;;;;4956674;28;20493;-74
2021/03/26 09:48:55;;;;;;;41.60;34.23;;;21.50;1.00;;;;;;4962106;28;20453;-72
2021/03/26 09:51:42;;;;;;;44.03;34.20;;;21.50;1.00;;;;;;4951606;28;21191;-77
2021/03/26 09:54:14;;;;;;;44.07;35.83;;;22.00;1.00;;;;;;4954869;28;20467;-74
2021/03/26 09:56:46;;;;;;;37.57;33.17;;;22.40;1.00;;;;;;4957729;28;20579;-74
2021/03/26 09:59:22;;;;;;;40.10;34.33;;;22.10;1.00;;;;;;4942431;28;20474;-72
2021/03/26 10:01:53;;;;;;;41.97;33.63;;;22.40;1.00;;;;;;4953443;28;20888;-75
2021/03/26 10:04:24;;;;;;;39.30;35.10;;;22.20;1.00;;;;;;4953122;28;20478;-74
2021/03/26 10:07:14;;;;;;;46.60;36.03;;;21.20;1.00;;;;;;4956866;28;20507;-73
2021/03/26 10:09:44;;;;;;;45.20;34.60;;;19.70;1.00;;;;;;4950569;28;21811;-74
2021/03/26 10:12:15;;;;;;;50.10;36.00;;;19.70;1.00;;;;;;4946348;28;20496;-76
2021/03/26 10:14:49;;;;;;;58.07;38.77;;;19.60;1.00;;;;;;4955077;28;21591;-75
2021/03/26 10:17:51;;;;;;;44.17;35.83;;;19.50;1.00;;;;;;4955680;28;20464;-76
2021/03/26 10:20:30;;;;;;;43.77;34.90;;;19.60;1.00;;;;;;4957208;28;20530;-75
2021/03/26 10:23:07;;;;;;;41.23;34.27;;;19.90;1.00;;;;;;4972411;28;20486;-74
2021/03/26 10:25:38;;;;;;;37.93;32.83;;;20.00;1.00;;;;;;4958602;28;20467;-76
2021/03/26 10:28:17;;;;;;;37.50;33.50;;;21.00;1.00;;;;;;4952324;28;20512;-75
2021/03/26 10:30:46;;;;;;;38.87;33.80;;;22.60;1.00;;;;;;4954350;28;20492;-76
2021/03/26 10:33:14;;;;;;;35.40;31.57;;;23.90;1.00;;;;;;4954795;28;20464;-74
2021/03/26 10:35:50;;;;;;;35.80;32.10;;;23.90;1.00;;;;;;4950032;28;20467;-74
2021/03/26 10:38:21;;;;;;;37.10;33.10;;;23.50;1.00;;;;;;4949684;28;21321;-75
2021/03/26 10:40:57;;;;;;;41.80;33.27;;;22.40;1.00;;;;;;4944802;28;20442;-75
2021/03/26 10:43:27;;;;;;;35.33;31.20;;;21.50;1.00;;;;;;4952356;28;20428;-75
2021/03/26 10:45:59;;;;;;;59.50;37.57;;;21.00;1.00;;;;;;4950427;28;20995;-76
2021/03/26 10:48:33;;;;;;;36.73;29.97;;;20.70;1.00;;;;;;4949284;28;20444;-76
2021/03/26 10:51:29;;;;;;;40.90;31.20;;;20.00;1.00;;;;;;4951002;28;20448;-75
2021/03/26 10:54:04;;;;;;;37.30;29.47;;;19.60;1.00;;;;;;4952289;28;20481;-76
2021/03/26 10:56:50;;;;;;;40.20;31.77;;;19.20;1.00;;;;;;4956132;28;20839;-76
2021/03/26 10:59:24;;;;;;;51.63;34.10;;;18.90;1.00;;;;;;4947592;28;20459;-75
2021/03/26 11:01:54;;;;;;;39.80;31.00;;;18.70;1.00;;;;;;4944035;28;20467;-74
2021/03/26 11:04:33;;;;;;;37.20;30.07;;;18.60;1.00;;;;;;4951327;28;20444;-74
2021/03/26 11:07:07;;;;;;;37.53;30.10;;;18.50;1.00;;;;;;4949240;28;20463;-77
2021/03/26 11:09:40;;;;;;;46.30;32.40;;;17.90;1.00;;;;;;4932690;28;20455;-76
2021/03/26 11:12:22;;;;;;;42.23;30.80;;;17.80;1.00;;;;;;4951837;28;20459;-75
2021/03/26 11:14:57;;;;;;;41.47;32.03;;;17.80;1.00;;;;;;4949621;28;20534;-76
2021/03/26 11:17:39;;;;;;;37.10;32.00;;;17.80;1.00;;;;;;4948308;28;21864;-77
2021/03/26 11:20:23;;;;;;;40.53;30.83;;;17.90;1.00;;;;;;4957256;28;20456;-76
2021/03/26 11:22:56;;;;;;;37.77;29.43;;;18.00;1.00;;;;;;4949242;28;21290;-76
2021/03/26 11:25:30;;;;;;;40.50;33.60;;;18.20;1.00;;;;;;4953348;28;20479;-77
2021/03/26 11:27:59;;;;;;;40.70;32.17;;;18.30;1.00;;;;;;4950001;28;20546;-74
2021/03/26 11:30:37;;;;;;;42.50;32.77;;;18.40;1.00;;;;;;4935461;28;20514;-75
2021/03/26 11:33:16;;;;;;;38.80;32.90;;;18.50;1.00;;;;;;4953899;28;20439;-76
2021/03/26 11:35:45;;;;;;;38.70;30.40;;;18.70;1.00;;;;;;4953144;28;20487;-75
2021/03/26 11:38:18;;;;;;;43.77;34.03;;;18.80;1.00;;;;;;4960198;28;20543;-77
2021/03/26 11:40:53;;;;;;;42.10;32.30;;;19.10;1.00;;;;;;4945416;28;20441;-73
2021/03/26 11:43:22;;;;;;;37.07;29.57;;;19.40;1.00;;;;;;4954045;28;20583;-74
2021/03/26 11:46:00;;;;;;;36.90;31.50;;;19.50;1.00;;;;;;4956024;28;20475;-74
2021/03/26 11:48:37;;;;;;;40.50;31.43;;;19.10;1.00;;;;;;4956029;28;20503;-76
2021/03/26 11:51:11;;;;;;;40.80;30.57;;;19.30;1.00;;;;;;4960342;28;20469;-76
2021/03/26 11:53:41;;;;;;;44.10;32.10;;;20.00;1.00;;;;;;4964749;28;20471;-77
2021/03/26 11:57:24;;;;;;;38.77;31.70;;;20.90;1.00;;;;;;5097805;27;20580;-76
2021/03/26 12:00:17;;;;;;;39.43;32.40;;;21.30;1.00;;;;;;5079165;27;22229;-76
2021/03/26 12:02:52;;;;;;;40.23;33.10;;;20.70;1.00;;;;;;5082585;27;20442;-78
2021/03/26 12:05:42;;;;;;;44.20;33.10;;;20.30;1.00;;;;;;5092636;27;20446;-76
2021/03/26 12:08:14;;;;;;;42.83;32.50;;;19.80;1.00;;;;;;5083494;27;20470;-76
2021/03/26 12:10:45;;;;;;;36.00;30.30;;;19.90;1.00;;;;;;5086005;27;20470;-77
2021/03/26 12:13:18;;;;;;;37.90;31.13;;;20.30;1.00;;;;;;5087460;27;20455;-77
2021/03/26 12:15:52;;;;;;;43.43;31.63;;;21.70;1.00;;;;;;5092942;27;20428;-75
2021/03/26 12:18:25;;;;;;;39.00;32.57;;;23.90;1.00;;;;;;5092923;27;20564;-76
2021/03/26 12:21:09;;;;;;;42.93;33.27;;;25.30;1.00;;;;;;5091133;27;20442;-76
2021/03/26 12:23:41;;;;;;;36.27;32.20;;;25.90;1.00;;;;;;5082171;27;20445;-75
2021/03/26 12:26:16;;;;;;;38.67;33.90;;;25.60;1.00;;;;;;5075471;27;21014;-76
2021/03/26 12:29:24;;;;;;;36.97;30.60;;;24.30;1.00;;;;;;5080225;27;20514;-75
2021/03/26 12:31:58;;;;;;;38.20;33.60;;;23.10;1.00;;;;;;5079941;27;20465;-74
2021/03/26 12:34:45;;;;;;;38.60;33.63;;;21.30;1.00;;;;;;5090934;27;20445;-77
2021/03/26 12:37:18;;;;;;;37.80;32.33;;;20.70;1.00;;;;;;5097301;27;20482;-78
2021/03/26 12:39:49;;;;;;;35.47;31.10;;;20.30;1.00;;;;;;5091942;28;20535;-77
2021/03/26 12:42:20;;;;;;;39.13;32.90;;;20.10;1.00;;;;;;5093862;27;20478;-78
2021/03/26 12:44:59;;;;;;;41.30;32.30;;;20.00;1.00;;;;;;5096842;27;20556;-78
2021/03/26 12:47:30;;;;;;;42.60;33.53;;;20.10;1.00;;;;;;5090145;27;20498;-76
2021/03/26 12:50:07;;;;;;;41.23;32.93;;;20.10;1.00;;;;;;5086037;27;21480;-76
2021/03/26 12:52:57;;;;;;;41.93;33.60;;;19.80;1.00;;;;;;5085957;27;20631;-77
2021/03/26 12:55:37;;;;;;;37.93;31.30;;;19.40;1.00;;;;;;5087767;27;20458;-76
2021/03/26 12:58:42;;;;;;;40.90;34.33;;;19.10;1.00;;;;;;5086767;27;20899;-76
2021/03/26 13:01:15;;;;;;;46.10;33.67;;;18.70;1.00;;;;;;5093202;27;20449;-77
2021/03/26 13:03:45;;;;;;;41.40;34.87;;;18.40;1.00;;;;;;5091532;28;21253;-77
2021/03/26 13:06:16;;;;;;;48.43;36.20;;;18.20;1.00;;;;;;5089495;27;20488;-75
2021/03/26 13:08:46;;;;;;;43.40;34.30;;;18.10;1.00;;;;;;5075560;27;20462;-80
2021/03/26 13:11:24;;;;;;;50.00;33.73;;;17.90;1.00;;;;;;5080746;28;20545;-75
2021/03/26 13:14:01;;;;;;;46.33;35.90;;;17.90;1.00;;;;;;5084912;28;20551;-80
2021/03/26 13:16:46;;;;;;;44.27;34.50;;;17.80;1.00;;;;;;5092126;28;20446;-79
2021/03/26 13:19:24;;;;;;;44.43;36.80;;;17.70;1.00;;;;;;5082344;28;20451;-79
2021/03/26 13:22:12;;;;;;;48.70;38.27;;;17.50;1.00;;;;;;5085075;28;20422;-79
2021/03/26 13:25:19;;;;;;;46.43;35.63;;;17.20;1.00;;;;;;5086699;28;20404;-78
2021/03/26 13:28:00;;;;;;;50.00;37.57;;;16.90;1.00;;;;;;5037538;28;20436;-78
2021/03/26 13:30:31;;;;;;;45.30;35.60;;;16.70;1.00;;;;;;5026055;28;20496;-74
2021/03/26 13:33:34;;;;;;;43.90;34.73;;;16.70;1.00;;;;;;5057625;28;20432;-75